Time;durP1;ratioP1;P1;durP2;ratioP2;P2;SDS_P1;SDS_P2;PMS_P1;PMS_P2;Temp;Humidity;BMP_temperature;BMP_pressure;BME280_temperature;BME280_humidity;BME280_pressure;Samples;Min_cycle;Max_cycle;Signal;HPM_P1;HPM_P2
2022/08/09 00:01:30;;;;;;;1.38;0.35;;;16.40;99.90;;;;;;5053804;28;20440;-82
2022/08/09 00:03:56;;;;;;;1.70;0.32;;;16.30;99.90;;;;;;5045201;28;22558;-82
2022/08/09 00:06:22;;;;;;;3.15;0.40;;;16.30;99.90;;;;;;5053170;28;20040;-81
2022/08/09 00:08:49;;;;;;;1.00;0.30;;;16.20;99.90;;;;;;5053533;28;20025;-81
2022/08/09 00:11:16;;;;;;;0.45;0.20;;;16.20;99.90;;;;;;5061660;28;20068;-81
2022/08/09 00:13:42;;;;;;;0.77;0.20;;;16.20;99.90;;;;;;5029963;28;20029;-82
2022/08/09 00:16:07;;;;;;;0.60;0.20;;;16.10;99.90;;;;;;5052879;28;20078;-82
2022/08/09 00:18:33;;;;;;;1.70;0.30;;;16.10;99.90;;;;;;5052378;28;20021;-81
2022/08/09 00:21:01;;;;;;;0.80;0.30;;;16.20;99.90;;;;;;5051156;28;20032;-80
2022/08/09 00:23:27;;;;;;;1.63;0.30;;;16.10;99.90;;;;;;5066435;28;20026;-81
2022/08/09 00:25:53;;;;;;;1.85;0.30;;;16.10;99.90;;;;;;5053105;28;20120;-84
2022/08/09 00:28:18;;;;;;;1.02;0.30;;;16.00;99.90;;;;;;5052996;28;20060;-83
2022/08/09 00:30:44;;;;;;;1.80;0.40;;;16.00;99.90;;;;;;5052817;28;20025;-82
2022/08/09 00:33:09;;;;;;;1.23;0.50;;;15.90;99.90;;;;;;5052947;28;20102;-83
2022/08/09 00:49:28;;;;;;;1.33;0.40;;;15.70;99.90;;;;;;4931371;29;20044;-80
2022/08/09 00:51:55;;;;;;;1.40;0.50;;;15.70;99.90;;;;;;4924714;29;20115;-83
2022/08/09 00:54:22;;;;;;;2.75;0.50;;;15.70;99.90;;;;;;4926999;29;20035;-82
2022/08/09 00:56:47;;;;;;;2.20;0.50;;;15.60;99.90;;;;;;4930164;29;20477;-81
2022/08/09 00:59:13;;;;;;;1.90;0.50;;;15.60;99.90;;;;;;4910472;29;20114;-82
2022/08/09 01:01:40;;;;;;;2.22;0.68;;;15.60;99.90;;;;;;4906764;29;20481;-81
2022/08/09 01:04:21;;;;;;;1.63;0.57;;;15.60;99.90;;;;;;4913505;29;20476;-82
2022/08/09 01:06:56;;;;;;;1.08;0.40;;;15.50;99.90;;;;;;4897734;29;20043;-81
2022/08/09 01:09:52;;;;;;;1.67;0.50;;;15.50;99.90;;;;;;4913932;29;20090;-82
2022/08/09 01:12:25;;;;;;;1.75;0.70;;;15.40;99.90;;;;;;4929010;29;20051;-81
2022/08/09 01:14:58;;;;;;;0.60;0.40;;;15.40;99.90;;;;;;4928979;29;20035;-82
2022/08/09 01:17:37;;;;;;;1.10;0.40;;;15.30;99.90;;;;;;5029015;28;20477;-81
2022/08/09 01:20:07;;;;;;;1.00;0.40;;;15.30;99.90;;;;;;5026608;28;20026;-81
2022/08/09 01:22:52;;;;;;;;;;;15.30;99.90;;;;;;5017371;28;20025;-80
2022/08/09 01:25:28;;;;;;;1.90;0.50;;;15.30;99.90;;;;;;5010434;28;20368;-81
2022/08/09 01:27:55;;;;;;;2.00;0.40;;;15.20;99.90;;;;;;5027273;28;20044;-82
2022/08/09 01:30:24;;;;;;;1.20;0.50;;;15.20;99.90;;;;;;5018496;28;20026;-81
2022/08/09 01:32:52;;;;;;;2.63;0.50;;;15.20;99.90;;;;;;5025347;28;20109;-80
2022/08/09 01:35:29;;;;;;;0.85;0.30;;;15.20;99.90;;;;;;5017407;28;20044;-83
2022/08/09 01:37:59;;;;;;;1.08;0.38;;;15.20;99.90;;;;;;5026007;28;20035;-81
2022/08/09 01:40:27;;;;;;;2.80;0.50;;;15.20;99.90;;;;;;5027586;28;20032;-83
2022/08/09 01:42:54;;;;;;;2.15;0.60;;;15.10;99.90;;;;;;5024955;28;20026;-81
2022/08/09 01:45:20;;;;;;;1.55;0.50;;;15.00;99.90;;;;;;5035409;28;20029;-81
2022/08/09 01:47:47;;;;;;;1.20;0.60;;;15.10;99.90;;;;;;5049394;28;20068;-81
2022/08/09 01:50:13;;;;;;;1.80;0.60;;;15.10;99.90;;;;;;5046003;28;20099;-83
2022/08/09 01:52:40;;;;;;;1.90;0.50;;;15.00;99.90;;;;;;5065124;28;20112;-82
2022/08/09 01:55:07;;;;;;;1.77;0.70;;;15.00;99.90;;;;;;5049850;28;20036;-83
2022/08/09 01:57:36;;;;;;;1.42;0.50;;;15.00;99.90;;;;;;5049419;28;20039;-80
2022/08/09 02:00:04;;;;;;;;;;;15.00;99.90;;;;;;5043676;28;20388;-81
2022/08/09 02:02:44;;;;;;;1.40;0.47;;;14.90;99.90;;;;;;5046806;28;19916;-81
2022/08/09 02:05:12;;;;;;;1.10;0.50;;;14.90;99.90;;;;;;5062553;28;20105;-82
2022/08/09 02:07:58;;;;;;;1.83;0.50;;;14.80;99.90;;;;;;5050615;28;20434;-82
2022/08/09 02:10:28;;;;;;;1.67;0.50;;;14.80;99.90;;;;;;5039304;28;20025;-80
2022/08/09 02:12:56;;;;;;;2.60;0.68;;;14.80;99.90;;;;;;5046365;28;20029;-82
2022/08/09 02:15:24;;;;;;;1.85;0.80;;;14.80;99.90;;;;;;5038678;28;20044;-80
2022/08/09 02:17:52;;;;;;;2.47;0.70;;;14.80;99.90;;;;;;5045093;28;20040;-82
2022/08/09 02:20:18;;;;;;;1.40;0.60;;;14.80;99.90;;;;;;5031091;28;20370;-82
2022/08/09 02:22:46;;;;;;;1.30;0.60;;;14.80;99.90;;;;;;5032349;28;20035;-81
2022/08/09 02:25:19;;;;;;;1.65;0.50;;;14.80;99.90;;;;;;5031334;28;20044;-82
2022/08/09 02:27:53;;;;;;;2.17;0.70;;;14.80;99.90;;;;;;5063419;28;20039;-81
2022/08/09 02:30:19;;;;;;;0.95;0.60;;;14.80;99.90;;;;;;5030602;28;20029;-82
2022/08/09 02:32:46;;;;;;;1.20;0.57;;;14.80;99.90;;;;;;5031237;28;20027;-83
2022/08/09 02:35:19;;;;;;;1.40;0.68;;;14.70;99.90;;;;;;5040590;28;20469;-80
2022/08/09 02:37:48;;;;;;;2.70;1.05;;;14.70;99.90;;;;;;5049038;28;20032;-81
2022/08/09 02:40:17;;;;;;;1.80;1.15;;;14.70;99.90;;;;;;5032500;28;20115;-81
2022/08/09 02:42:45;;;;;;;2.90;0.75;;;14.70;99.90;;;;;;5049793;28;20055;-82
2022/08/09 02:45:20;;;;;;;1.45;0.75;;;14.70;99.90;;;;;;5047419;28;20475;-84
2022/08/09 02:47:46;;;;;;;2.05;0.80;;;14.70;99.90;;;;;;5044546;28;20124;-82
2022/08/09 02:50:21;;;;;;;1.30;0.60;;;14.60;99.90;;;;;;5044813;28;20451;-82
2022/08/09 02:52:52;;;;;;;2.38;0.80;;;14.60;99.90;;;;;;5057756;28;20081;-83
2022/08/09 02:55:19;;;;;;;2.75;0.70;;;14.60;99.90;;;;;;5049115;28;20035;-82
2022/08/09 02:57:46;;;;;;;2.33;0.60;;;14.60;99.90;;;;;;5031915;28;20043;-83
2022/08/09 03:00:12;;;;;;;1.90;0.70;;;14.50;99.90;;;;;;5035157;28;20021;-80
2022/08/09 03:02:41;;;;;;;3.13;1.45;;;14.50;99.90;;;;;;5064212;28;20021;-81
2022/08/09 03:05:11;;;;;;;3.10;0.93;;;14.50;99.90;;;;;;5048213;28;20056;-83
2022/08/09 03:07:37;;;;;;;5.00;1.05;;;14.40;99.90;;;;;;5049053;28;20033;-82
2022/08/09 03:10:04;;;;;;;2.05;0.68;;;14.40;99.90;;;;;;5047988;28;20029;-81
2022/08/09 03:12:31;;;;;;;3.67;1.20;;;14.50;99.90;;;;;;5063173;28;20488;-81
2022/08/09 03:14:58;;;;;;;1.75;1.00;;;14.40;99.90;;;;;;5044936;28;20418;-81
2022/08/09 03:17:25;;;;;;;2.10;0.80;;;14.30;99.90;;;;;;5032052;28;20361;-82
2022/08/09 03:19:52;;;;;;;3.08;1.10;;;14.30;99.90;;;;;;5044366;28;20029;-80
2022/08/09 03:22:19;;;;;;;2.42;1.10;;;14.30;99.90;;;;;;5031514;28;20037;-81
2022/08/09 03:24:44;;;;;;;2.30;0.90;;;14.30;99.90;;;;;;5032194;28;20032;-82
2022/08/09 03:27:12;;;;;;;2.38;1.05;;;14.30;99.90;;;;;;5028568;28;20040;-81
2022/08/09 03:29:39;;;;;;;2.05;0.80;;;14.30;99.90;;;;;;5046452;28;20045;-81
2022/08/09 03:32:06;;;;;;;3.45;1.25;;;14.20;99.90;;;;;;5029634;28;20110;-82
2022/08/09 03:34:32;;;;;;;1.42;0.82;;;14.20;99.90;;;;;;5044143;28;20037;-82
2022/08/09 03:36:58;;;;;;;1.90;0.70;;;14.10;99.90;;;;;;5061078;28;20021;-81
2022/08/09 03:39:24;;;;;;;1.70;0.80;;;14.20;99.90;;;;;;5032055;28;20020;-82
2022/08/09 03:41:50;;;;;;;2.17;0.85;;;14.10;99.90;;;;;;5062210;28;20032;-82
2022/08/09 03:44:16;;;;;;;2.33;1.25;;;14.10;99.90;;;;;;5062598;28;20040;-82
2022/08/09 03:46:43;;;;;;;2.45;1.23;;;14.10;99.90;;;;;;5047293;28;20047;-82
2022/08/09 03:49:10;;;;;;;2.92;1.83;;;14.10;99.90;;;;;;5048198;28;20078;-82
2022/08/09 03:51:39;;;;;;;3.28;2.20;;;14.10;99.90;;;;;;5049592;28;20523;-82
2022/08/09 03:54:05;;;;;;;5.35;4.10;;;14.00;99.90;;;;;;5047147;28;20029;-81
2022/08/09 03:56:30;;;;;;;3.53;2.63;;;14.00;99.90;;;;;;5062374;28;20125;-81
2022/08/09 03:58:56;;;;;;;5.43;3.05;;;14.00;99.90;;;;;;5060668;28;20052;-82
2022/08/09 04:01:23;;;;;;;4.53;2.05;;;13.90;99.90;;;;;;5030733;28;20032;-82
2022/08/09 04:03:52;;;;;;;4.47;1.98;;;13.90;99.90;;;;;;5026248;28;20021;-82
2022/08/09 04:06:18;;;;;;;3.17;1.83;;;13.90;99.90;;;;;;5062149;28;20044;-82
2022/08/09 04:08:44;;;;;;;5.18;2.80;;;13.90;99.90;;;;;;5043854;28;20029;-82
2022/08/09 04:11:10;;;;;;;3.75;1.83;;;13.90;99.90;;;;;;5047443;28;20098;-82
2022/08/09 04:13:36;;;;;;;2.88;2.08;;;13.90;99.90;;;;;;5050898;28;20050;-81
2022/08/09 04:16:01;;;;;;;3.35;2.30;;;13.90;99.90;;;;;;5032524;28;20036;-82
2022/08/09 04:18:27;;;;;;;4.15;2.08;;;13.90;99.90;;;;;;5050171;28;20032;-82
2022/08/09 04:20:53;;;;;;;2.53;1.75;;;13.80;99.90;;;;;;5064859;28;20031;-82
2022/08/09 04:23:19;;;;;;;1.92;1.38;;;13.80;99.90;;;;;;5049931;28;20025;-82
2022/08/09 04:25:45;;;;;;;5.43;1.50;;;13.80;99.90;;;;;;5046583;28;20039;-82
2022/08/09 04:28:11;;;;;;;4.28;2.95;;;13.80;99.90;;;;;;5049272;28;20392;-81
2022/08/09 04:30:36;;;;;;;2.55;2.03;;;13.80;99.90;;;;;;5048104;28;20029;-82
2022/08/09 04:33:02;;;;;;;3.65;2.15;;;13.80;99.90;;;;;;5028789;28;20051;-81
2022/08/09 04:35:28;;;;;;;3.15;1.38;;;13.80;99.90;;;;;;5031064;28;20040;-81
2022/08/09 04:37:53;;;;;;;2.65;1.60;;;13.80;99.90;;;;;;5047591;28;20056;-82
2022/08/09 04:40:19;;;;;;;2.65;1.20;;;13.90;99.90;;;;;;5027199;28;20375;-82
2022/08/09 04:42:46;;;;;;;3.55;1.92;;;13.90;99.90;;;;;;5049342;28;20079;-81
2022/08/09 04:45:11;;;;;;;2.97;1.85;;;13.90;99.90;;;;;;5050495;28;20112;-82
2022/08/09 04:47:37;;;;;;;3.13;2.05;;;13.90;99.90;;;;;;5033901;28;20059;-82
2022/08/09 04:50:03;;;;;;;2.10;1.33;;;13.90;99.90;;;;;;5031812;28;20186;-81
2022/08/09 04:52:29;;;;;;;3.95;1.73;;;14.00;99.90;;;;;;5030866;28;20025;-81
2022/08/09 04:54:56;;;;;;;2.40;1.30;;;14.00;99.90;;;;;;5027457;28;20469;-81
2022/08/09 04:57:21;;;;;;;4.95;1.90;;;14.00;99.90;;;;;;5045370;28;20036;-82
2022/08/09 04:59:47;;;;;;;2.72;1.80;;;14.00;99.90;;;;;;5047541;28;20081;-82
2022/08/09 05:02:13;;;;;;;2.80;1.63;;;14.10;99.90;;;;;;5033272;28;20032;-82
2022/08/09 05:04:39;;;;;;;5.57;3.08;;;14.10;99.90;;;;;;5064871;28;20035;-81
2022/08/09 05:07:04;;;;;;;3.88;2.70;;;14.10;99.90;;;;;;5043683;28;20033;-81
2022/08/09 05:09:30;;;;;;;4.72;1.95;;;14.20;99.90;;;;;;5064743;28;20515;-81
2022/08/09 05:11:57;;;;;;;6.72;3.60;;;14.20;99.90;;;;;;5031062;28;20025;-82
2022/08/09 05:14:23;;;;;;;4.43;3.28;;;14.20;99.90;;;;;;5033945;28;20078;-82
2022/08/09 05:16:49;;;;;;;4.88;3.50;;;14.20;99.90;;;;;;5040920;28;20489;-83
2022/08/09 05:19:16;;;;;;;8.80;4.60;;;14.20;99.90;;;;;;5042131;28;20029;-82
2022/08/09 05:21:43;;;;;;;4.53;3.35;;;14.30;99.90;;;;;;5028053;28;20041;-83
2022/08/09 05:24:08;;;;;;;3.72;2.85;;;14.40;99.90;;;;;;5041012;28;20037;-83
2022/08/09 05:26:36;;;;;;;5.28;3.08;;;14.40;99.90;;;;;;5030078;28;20032;-82
2022/08/09 05:29:02;;;;;;;3.42;2.10;;;14.40;99.90;;;;;;5037182;28;20036;-81
2022/08/09 05:31:27;;;;;;;4.38;2.95;;;14.40;99.90;;;;;;5041151;28;20028;-83
2022/08/09 05:33:53;;;;;;;5.60;3.47;;;14.40;99.90;;;;;;5027852;28;20028;-82
2022/08/09 05:36:19;;;;;;;4.13;2.83;;;14.50;99.90;;;;;;5042686;28;20115;-82
2022/08/09 05:38:44;;;;;;;4.95;2.50;;;14.60;99.90;;;;;;5022453;28;20076;-82
2022/08/09 05:41:10;;;;;;;5.97;2.70;;;14.60;99.90;;;;;;5055161;28;20044;-82
2022/08/09 05:43:36;;;;;;;7.03;5.38;;;14.70;99.90;;;;;;5060764;28;20025;-83
2022/08/09 05:46:02;;;;;;;10.00;7.60;;;14.70;99.90;;;;;;5042150;28;20068;-82
2022/08/09 05:48:28;;;;;;;6.82;5.28;;;14.70;99.90;;;;;;5013970;28;20064;-81
2022/08/09 05:50:54;;;;;;;7.00;4.80;;;14.80;99.90;;;;;;5025702;28;20029;-81
2022/08/09 05:53:20;;;;;;;7.97;6.18;;;14.90;99.90;;;;;;5023980;28;20041;-81
2022/08/09 05:55:46;;;;;;;5.25;3.85;;;14.90;99.90;;;;;;4992770;28;20069;-82
2022/08/09 05:58:12;;;;;;;4.93;3.92;;;14.90;99.90;;;;;;5016705;28;20040;-82
2022/08/09 06:00:37;;;;;;;5.20;3.55;;;15.10;99.90;;;;;;5004764;28;20450;-82
2022/08/09 06:03:03;;;;;;;6.53;4.25;;;15.20;99.90;;;;;;5020462;28;20397;-82
2022/08/09 06:05:32;;;;;;;5.40;4.13;;;15.30;99.90;;;;;;5020427;28;20535;-82
2022/08/09 06:07:59;;;;;;;5.60;3.40;;;15.30;99.90;;;;;;5019020;28;20456;-83
2022/08/09 06:10:36;;;;;;;6.53;3.20;;;15.50;99.90;;;;;;5009503;28;20029;-81
2022/08/09 06:13:07;;;;;;;6.35;5.57;;;15.60;99.90;;;;;;5019621;28;20043;-81
2022/08/09 06:15:33;;;;;;;5.65;4.18;;;15.70;99.90;;;;;;5025021;28;20017;-81
2022/08/09 06:17:59;;;;;;;6.00;4.95;;;15.80;99.90;;;;;;5032390;28;20507;-81
2022/08/09 06:20:25;;;;;;;4.55;3.78;;;15.90;99.90;;;;;;5026288;28;20041;-81
2022/08/09 06:22:51;;;;;;;3.78;2.38;;;16.10;99.90;;;;;;5025331;28;20026;-82
2022/08/09 06:25:16;;;;;;;5.97;2.80;;;16.30;99.90;;;;;;5013281;28;20038;-83
2022/08/09 06:27:42;;;;;;;4.30;3.53;;;16.50;99.90;;;;;;5011107;28;20073;-82
2022/08/09 06:30:08;;;;;;;3.70;2.80;;;16.60;99.90;;;;;;5022530;28;20044;-82
2022/08/09 06:32:34;;;;;;;3.53;3.20;;;16.80;99.90;;;;;;5010596;28;20029;-82
2022/08/09 06:35:00;;;;;;;4.68;3.17;;;16.90;99.90;;;;;;5023803;28;20028;-82
2022/08/09 06:37:25;;;;;;;3.95;2.50;;;17.00;99.90;;;;;;5028163;28;20030;-83
2022/08/09 06:39:51;;;;;;;3.08;1.52;;;17.20;99.90;;;;;;5014354;28;20417;-82
2022/08/09 06:42:21;;;;;;;3.65;2.58;;;17.40;99.90;;;;;;5028173;28;20032;-82
2022/08/09 06:44:47;;;;;;;4.80;3.97;;;17.60;99.90;;;;;;5028389;28;20497;-82
2022/08/09 06:47:14;;;;;;;5.45;3.88;;;17.50;99.90;;;;;;5040752;28;20063;-83
2022/08/09 06:49:39;;;;;;;8.45;5.05;;;17.50;99.90;;;;;;5043709;28;20078;-83
2022/08/09 06:52:05;;;;;;;3.67;2.75;;;17.40;99.90;;;;;;5033251;28;20024;-82
2022/08/09 06:54:31;;;;;;;3.38;1.88;;;17.80;99.90;;;;;;5027546;28;20033;-82
2022/08/09 06:56:57;;;;;;;3.78;2.83;;;18.30;99.90;;;;;;5044320;28;20043;-82
2022/08/09 06:59:22;;;;;;;3.90;2.55;;;18.50;99.90;;;;;;5061837;28;20016;-83
2022/08/09 07:01:48;;;;;;;3.22;2.03;;;18.60;99.90;;;;;;5046846;28;20115;-82
2022/08/09 07:04:14;;;;;;;3.85;1.65;;;18.60;99.90;;;;;;5027147;28;20060;-82
2022/08/09 07:06:39;;;;;;;4.05;1.88;;;18.70;99.90;;;;;;5026865;28;20508;-81
2022/08/09 07:09:05;;;;;;;2.50;1.20;;;19.10;99.90;;;;;;5026232;28;20361;-82
2022/08/09 07:11:31;;;;;;;2.05;0.98;;;19.20;99.90;;;;;;5056633;28;20081;-82
2022/08/09 07:13:56;;;;;;;3.03;2.53;;;19.40;99.90;;;;;;5041903;28;20068;-82
2022/08/09 07:16:22;;;;;;;3.92;2.40;;;19.60;99.90;;;;;;5043850;28;20056;-82
2022/08/09 07:18:48;;;;;;;4.85;3.67;;;19.20;99.90;;;;;;5045958;28;20052;-82
2022/08/09 07:21:13;;;;;;;2.60;2.15;;;19.00;99.90;;;;;;5042641;28;20102;-82
2022/08/09 07:23:40;;;;;;;3.55;2.05;;;19.50;99.90;;;;;;5053632;28;22577;-81
2022/08/09 07:26:06;;;;;;;3.00;1.10;;;19.80;99.90;;;;;;5044134;28;20052;-82
2022/08/09 07:28:32;;;;;;;2.10;1.10;;;20.10;99.90;;;;;;5046809;28;20025;-82
2022/08/09 07:30:58;;;;;;;2.70;1.55;;;20.40;99.90;;;;;;5002116;28;20093;-81
2022/08/09 07:33:25;;;;;;;3.00;1.92;;;20.20;99.90;;;;;;5038347;28;20561;-82
2022/08/09 07:35:51;;;;;;;3.38;0.90;;;20.20;99.90;;;;;;5042019;28;20090;-81
2022/08/09 07:38:17;;;;;;;3.10;0.95;;;20.40;99.90;;;;;;5041448;28;20408;-82
2022/08/09 07:40:43;;;;;;;2.97;1.00;;;20.80;99.90;;;;;;5023895;28;20040;-82
2022/08/09 07:43:08;;;;;;;2.00;0.80;;;21.00;99.90;;;;;;5042318;28;20028;-82
2022/08/09 07:45:34;;;;;;;2.72;1.02;;;21.00;99.90;;;;;;5058052;28;20487;-83
2022/08/09 07:48:00;;;;;;;2.95;1.88;;;20.90;99.90;;;;;;5031479;28;20044;-82
2022/08/09 07:50:27;;;;;;;1.90;1.00;;;20.70;99.90;;;;;;5054773;28;20158;-81
2022/08/09 07:52:53;;;;;;;2.00;0.60;;;20.90;99.90;;;;;;5059932;28;20076;-82
2022/08/09 07:55:19;;;;;;;2.33;1.33;;;21.20;99.90;;;;;;5030901;28;20144;-82
2022/08/09 07:57:47;;;;;;;3.60;0.95;;;20.80;99.90;;;;;;5029103;28;20025;-83
2022/08/09 08:00:17;;;;;;;2.08;0.77;;;21.20;99.90;;;;;;5030636;28;20025;-81
2022/08/09 08:02:43;;;;;;;5.13;0.60;;;21.30;99.90;;;;;;5026097;28;20404;-82
2022/08/09 08:05:09;;;;;;;1.60;0.63;;;21.80;99.90;;;;;;5046193;28;20032;-82
2022/08/09 08:07:35;;;;;;;2.67;0.90;;;21.90;99.90;;;;;;5043533;28;20040;-82
2022/08/09 08:10:01;;;;;;;2.75;1.05;;;21.70;99.90;;;;;;5029444;28;20698;-83
2022/08/09 08:12:27;;;;;;;1.27;0.60;;;21.60;99.90;;;;;;5030153;28;20040;-82
2022/08/09 08:14:53;;;;;;;4.35;1.23;;;22.10;99.90;;;;;;5031903;28;20020;-83
2022/08/09 08:17:19;;;;;;;1.90;0.50;;;21.60;99.90;;;;;;5048425;28;20029;-83
2022/08/09 08:19:44;;;;;;;1.98;0.45;;;21.90;99.90;;;;;;5046279;28;20032;-83
2022/08/09 08:22:10;;;;;;;1.88;0.40;;;22.10;99.90;;;;;;5043822;28;20029;-83
2022/08/09 08:24:35;;;;;;;2.75;0.30;;;22.20;99.90;;;;;;5046345;28;20032;-83
2022/08/09 08:27:01;;;;;;;1.92;0.57;;;22.70;99.90;;;;;;5043994;28;20028;-83
2022/08/09 08:29:27;;;;;;;0.88;0.30;;;22.60;99.90;;;;;;5034343;28;20029;-83
2022/08/09 08:31:53;;;;;;;1.13;0.35;;;22.70;99.90;;;;;;5034892;28;20173;-84
2022/08/09 08:34:18;;;;;;;0.60;0.20;;;23.00;99.90;;;;;;5045221;28;20036;-86
2022/08/09 08:36:44;;;;;;;1.30;0.28;;;22.90;99.90;;;;;;5063775;28;20024;-84
2022/08/09 08:39:10;;;;;;;1.17;0.30;;;23.20;99.90;;;;;;5043642;28;20544;-84
2022/08/09 08:41:37;;;;;;;1.10;0.30;;;23.20;99.90;;;;;;5044651;28;20040;-83
2022/08/09 08:44:02;;;;;;;1.73;0.20;;;23.40;99.90;;;;;;5049266;28;20028;-83
2022/08/09 08:46:33;;;;;;;1.10;0.20;;;23.50;99.90;;;;;;5064016;28;20041;-83
2022/08/09 08:49:00;;;;;;;1.25;0.17;;;23.00;99.90;;;;;;5046928;28;20028;-84
2022/08/09 08:51:25;;;;;;;1.15;0.22;;;23.50;99.90;;;;;;5029006;28;20124;-82
2022/08/09 08:53:51;;;;;;;0.70;0.20;;;23.60;99.90;;;;;;5063288;28;20266;-83
2022/08/09 08:56:21;;;;;;;1.58;0.10;;;23.70;99.90;;;;;;5048724;28;20032;-84
2022/08/09 08:58:47;;;;;;;1.55;0.10;;;23.80;99.90;;;;;;5042722;28;20032;-83
2022/08/09 09:01:15;;;;;;;0.60;0.20;;;23.70;99.90;;;;;;5049367;28;20412;-83
2022/08/09 09:03:42;;;;;;;0.55;0.10;;;24.10;99.90;;;;;;5046149;28;20025;-82
2022/08/09 09:06:09;;;;;;;0.35;0.10;;;24.20;99.90;;;;;;5043305;28;20400;-83
2022/08/09 09:08:37;;;;;;;2.05;0.10;;;24.30;99.90;;;;;;5063344;28;20025;-82
2022/08/09 09:11:05;;;;;;;0.25;0.10;;;24.00;99.90;;;;;;5059827;28;20097;-83
2022/08/09 09:13:36;;;;;;;0.85;0.10;;;24.50;99.90;;;;;;5042426;28;20028;-84
2022/08/09 09:16:01;;;;;;;1.13;0.10;;;24.30;99.90;;;;;;5039356;28;20032;-84
2022/08/09 09:18:27;;;;;;;0.38;0.00;;;24.10;99.90;;;;;;5026030;28;20073;-84
2022/08/09 09:20:54;;;;;;;0.68;0.10;;;24.30;99.90;;;;;;5046584;28;20180;-84
2022/08/09 09:23:44;;;;;;;0.20;0.10;;;24.60;99.90;;;;;;5045979;28;20488;-84
2022/08/09 09:26:12;;;;;;;0.40;0.10;;;24.60;99.90;;;;;;5030766;28;20481;-84
2022/08/09 09:28:42;;;;;;;0.65;0.10;;;24.70;99.90;;;;;;5061705;28;20055;-82
2022/08/09 09:31:15;;;;;;;0.93;0.10;;;24.70;99.90;;;;;;5032010;28;20867;-84
2022/08/09 09:33:41;;;;;;;0.70;0.10;;;25.00;99.90;;;;;;5029556;28;20051;-84
2022/08/09 09:36:08;;;;;;;0.85;0.10;;;25.00;99.90;;;;;;5054172;28;20056;-83
2022/08/09 09:38:55;;;;;;;1.83;0.10;;;25.40;99.90;;;;;;5043566;28;20036;-85
2022/08/09 09:41:27;;;;;;;1.45;0.10;;;25.10;99.90;;;;;;5060768;28;20032;-84
2022/08/09 09:43:54;;;;;;;0.70;0.10;;;24.90;99.90;;;;;;5044252;28;20037;-83
2022/08/09 09:46:26;;;;;;;1.30;0.10;;;24.80;99.90;;;;;;5061188;28;20040;-83
2022/08/09 09:49:00;;;;;;;0.40;0.00;;;25.30;99.90;;;;;;5060135;28;20067;-83
2022/08/09 09:51:29;;;;;;;0.93;0.10;;;25.60;99.90;;;;;;5025953;28;20077;-82
2022/08/09 09:54:08;;;;;;;0.90;0.10;;;25.10;99.90;;;;;;5043462;28;20055;-84
2022/08/09 09:56:39;;;;;;;0.90;0.10;;;25.50;99.90;;;;;;5043499;28;20458;-86
2022/08/09 09:59:06;;;;;;;0.95;0.20;;;25.60;99.90;;;;;;5043932;28;20480;-84
2022/08/09 10:01:32;;;;;;;0.30;0.03;;;25.10;99.90;;;;;;5043220;28;20040;-85
2022/08/09 10:03:58;;;;;;;1.27;0.20;;;25.30;99.90;;;;;;5028975;28;20029;-85
2022/08/09 10:06:26;;;;;;;0.73;0.10;;;25.20;99.90;;;;;;5043670;28;20156;-82
2022/08/09 10:09:01;;;;;;;0.65;0.10;;;25.50;99.90;;;;;;5041713;28;20044;-85
2022/08/09 10:11:29;;;;;;;0.22;0.00;;;25.80;99.90;;;;;;5059926;28;20102;-82
2022/08/09 10:13:54;;;;;;;0.73;0.10;;;25.70;99.90;;;;;;5063251;28;20020;-84
2022/08/09 10:16:34;;;;;;;0.45;0.10;;;26.20;99.90;;;;;;5062565;28;20416;-85
2022/08/09 10:19:01;;;;;;;;;;;25.90;99.90;;;;;;5044676;28;20032;-83
2022/08/09 10:21:27;;;;;;;0.60;0.10;;;26.00;99.90;;;;;;5044766;28;19934;-81
2022/08/09 10:23:55;;;;;;;1.73;0.20;;;25.40;99.90;;;;;;5059030;28;20043;-84
2022/08/09 10:26:22;;;;;;;0.20;0.00;;;25.10;99.90;;;;;;5043983;28;20082;-83
2022/08/09 10:28:48;;;;;;;0.45;0.10;;;25.90;99.90;;;;;;5048822;28;20633;-81
2022/08/09 10:31:15;;;;;;;0.30;0.00;;;26.00;99.90;;;;;;5033305;28;20131;-86
2022/08/09 10:33:41;;;;;;;0.77;0.05;;;26.30;99.90;;;;;;5040123;28;20100;-85
2022/08/09 10:36:09;;;;;;;0.80;0.13;;;26.30;99.90;;;;;;5043322;28;20029;-85
2022/08/09 10:38:36;;;;;;;0.80;0.10;;;26.10;99.90;;;;;;5045857;28;20047;-84
2022/08/09 10:41:03;;;;;;;1.25;0.10;;;26.20;99.90;;;;;;5082240;28;20038;-82
2022/08/09 10:43:29;;;;;;;0.80;0.10;;;26.80;99.90;;;;;;5078269;28;20568;-85
2022/08/09 10:45:55;;;;;;;0.85;0.10;;;26.80;99.90;;;;;;5082451;28;20020;-82
2022/08/09 10:48:45;;;;;;;0.85;0.00;;;26.70;99.90;;;;;;5078031;28;20042;-85
2022/08/09 10:51:42;;;;;;;0.52;0.05;;;26.70;99.90;;;;;;5079785;28;20024;-80
2022/08/09 10:54:12;;;;;;;0.68;0.10;;;26.60;99.90;;;;;;5076784;28;20424;-84
2022/08/09 10:56:40;;;;;;;0.30;0.00;;;26.60;99.90;;;;;;5066326;28;20043;-83
2022/08/09 10:59:24;;;;;;;0.30;0.00;;;27.00;99.90;;;;;;5083544;28;20055;-81
2022/08/09 11:01:51;;;;;;;0.30;0.10;;;26.80;99.90;;;;;;5080946;28;20032;-84
2022/08/09 11:04:22;;;;;;;0.30;0.03;;;26.80;99.90;;;;;;5065949;28;20433;-84
2022/08/09 11:06:57;;;;;;;0.82;0.10;;;26.60;99.90;;;;;;5077286;28;20120;-81
2022/08/09 11:09:42;;;;;;;0.95;0.10;;;26.90;99.90;;;;;;5081368;28;20056;-83
2022/08/09 11:12:08;;;;;;;0.85;0.10;;;26.30;99.90;;;;;;5075361;28;20136;-85
2022/08/09 11:14:43;;;;;;;0.13;0.00;;;25.90;99.90;;;;;;5079633;28;20036;-83
2022/08/09 11:17:29;;;;;;;0.20;0.00;;;26.70;99.90;;;;;;5083371;28;20025;-82
2022/08/09 11:20:08;;;;;;;0.75;0.00;;;26.50;99.90;;;;;;5067114;28;20032;-82
2022/08/09 11:22:43;;;;;;;0.25;0.00;;;27.00;99.90;;;;;;5080708;28;20067;-84
2022/08/09 11:25:09;;;;;;;0.95;0.10;;;27.40;99.90;;;;;;5086257;28;20078;-84
2022/08/09 11:27:40;;;;;;;0.63;0.00;;;26.80;99.90;;;;;;5071338;28;20040;-84
2022/08/09 11:30:06;;;;;;;0.13;0.00;;;27.20;99.90;;;;;;5079748;28;20036;-83
2022/08/09 11:33:01;;;;;;;0.50;0.10;;;27.20;99.90;;;;;;5070417;28;20081;-79
2022/08/09 11:35:38;;;;;;;0.32;0.00;;;27.30;99.90;;;;;;5084551;28;20050;-84
2022/08/09 11:38:31;;;;;;;0.20;0.00;;;27.10;99.90;;;;;;5085121;28;20024;-82
2022/08/09 11:41:21;;;;;;;0.38;0.10;;;27.60;99.90;;;;;;5069299;28;20103;-83
2022/08/09 11:43:48;;;;;;;0.10;0.00;;;27.60;99.90;;;;;;5053133;28;20632;-83
2022/08/09 11:46:14;;;;;;;0.90;0.00;;;27.90;99.90;;;;;;5087815;28;20032;-84
2022/08/09 11:48:51;;;;;;;0.30;0.00;;;27.30;99.90;;;;;;5082710;28;20443;-83
2022/08/09 11:51:25;;;;;;;1.75;0.00;;;27.70;99.90;;;;;;5083032;28;20480;-81
2022/08/09 11:54:16;;;;;;;0.25;0.00;;;27.40;99.90;;;;;;5082831;28;20403;-82
2022/08/09 11:56:42;;;;;;;3.40;0.10;;;27.60;99.90;;;;;;5080634;28;20059;-82
2022/08/09 11:59:10;;;;;;;0.65;0.10;;;26.30;99.90;;;;;;5068335;28;20024;-84
2022/08/09 12:01:41;;;;;;;0.70;0.10;;;26.50;99.90;;;;;;5067060;28;20021;-84
2022/08/09 12:04:14;;;;;;;0.30;0.10;;;27.00;99.90;;;;;;5067241;28;20328;-84
2022/08/09 12:06:49;;;;;;;0.25;0.00;;;27.10;99.90;;;;;;5085502;28;20074;-86
2022/08/09 12:09:15;;;;;;;0.35;0.05;;;27.40;99.90;;;;;;5067197;28;20031;-83
2022/08/09 12:11:41;;;;;;;0.43;0.05;;;27.90;99.90;;;;;;5086564;28;20032;-81
2022/08/09 12:14:09;;;;;;;0.20;0.00;;;28.10;99.90;;;;;;5084458;28;20131;-86
2022/08/09 12:16:44;;;;;;;0.28;0.00;;;27.80;99.90;;;;;;5064602;28;20062;-83
2022/08/09 12:19:11;;;;;;;0.60;0.10;;;28.00;99.90;;;;;;5086299;28;20027;-79
2022/08/09 12:21:43;;;;;;;0.68;0.00;;;26.70;99.90;;;;;;5080881;28;20350;-84
2022/08/09 12:24:10;;;;;;;0.10;0.00;;;27.30;99.90;;;;;;5078795;28;20028;-87
2022/08/09 12:26:36;;;;;;;0.20;0.00;;;27.40;99.90;;;;;;5084023;28;20480;-82
2022/08/09 12:29:02;;;;;;;0.38;0.00;;;27.70;99.90;;;;;;5083767;28;20039;-81
2022/08/09 12:31:28;;;;;;;0.68;0.00;;;27.80;99.90;;;;;;5069887;28;20048;-85
2022/08/09 12:33:54;;;;;;;0.52;0.10;;;27.90;99.90;;;;;;5084122;28;20028;-84
2022/08/09 12:36:22;;;;;;;0.68;0.00;;;27.90;99.90;;;;;;5086397;28;20396;-80
2022/08/09 12:38:49;;;;;;;0.50;0.10;;;26.80;99.90;;;;;;5068681;28;20085;-78
2022/08/09 12:41:16;;;;;;;0.90;0.10;;;26.40;99.90;;;;;;5077412;28;20032;-83
2022/08/09 12:43:42;;;;;;;0.45;0.10;;;26.50;99.90;;;;;;5081110;28;20024;-80
2022/08/09 12:46:08;;;;;;;0.65;0.00;;;27.20;99.90;;;;;;5065052;28;20563;-81
2022/08/09 12:48:35;;;;;;;0.73;0.10;;;27.40;99.90;;;;;;5080641;28;20043;-81
2022/08/09 12:51:01;;;;;;;0.00;0.00;;;27.20;99.90;;;;;;5077324;28;20036;-81
2022/08/09 12:53:33;;;;;;;0.40;0.08;;;27.40;99.90;;;;;;5078928;28;20028;-81
2022/08/09 12:56:09;;;;;;;0.20;0.00;;;27.50;99.90;;;;;;5061041;28;20032;-83
2022/08/09 12:58:35;;;;;;;0.98;0.08;;;27.50;99.90;;;;;;5078263;28;20036;-81
2022/08/09 13:01:03;;;;;;;0.50;0.00;;;27.10;99.90;;;;;;5063843;28;20563;-78
2022/08/09 13:03:32;;;;;;;1.20;0.10;;;27.10;99.90;;;;;;5081297;28;20146;-80
2022/08/09 13:05:57;;;;;;;1.33;0.00;;;27.10;99.90;;;;;;5069441;28;20067;-81
2022/08/09 13:08:24;;;;;;;0.60;0.10;;;27.70;99.90;;;;;;5077438;28;20113;-80